Time;durP1;ratioP1;P1;durP2;ratioP2;P2;SDS_P1;SDS_P2;PMS_P1;PMS_P2;Temp;Humidity;BMP_temperature;BMP_pressure;BME280_temperature;BME280_humidity;BME280_pressure;Samples;Min_cycle;Max_cycle;Signal;HPM_P1;HPM_P2
2022/05/16 00:02:19;;;;;;;15.55;5.20;;;;;;;15.52;51.90;100622.19;4978804;28;96877;-93
2022/05/16 00:04:48;;;;;;;12.95;5.63;;;;;;;15.57;52.35;100623.69;5006562;28;97913;-91
2022/05/16 00:07:13;;;;;;;10.93;5.05;;;;;;;15.45;52.63;100603.13;4984207;28;96557;-93
2022/05/16 00:09:39;;;;;;;15.50;4.75;;;;;;;15.54;52.46;100613.25;4975837;28;97076;-92
2022/05/16 00:12:06;;;;;;;12.82;4.78;;;;;;;15.40;52.55;100606.00;4996699;28;97535;-91
2022/05/16 00:14:32;;;;;;;12.60;4.88;;;;;;;15.45;52.77;100626.94;4978895;28;101357;-93
2022/05/16 00:16:58;;;;;;;11.57;5.25;;;;;;;15.27;52.98;100622.53;4994912;28;96898;-88
2022/05/16 00:19:24;;;;;;;9.30;4.65;;;;;;;15.29;53.13;100623.31;4975815;28;96932;-94
2022/05/16 00:21:49;;;;;;;13.55;4.80;;;;;;;15.29;53.09;100629.47;4975561;28;97347;-94
2022/05/16 00:24:15;;;;;;;12.15;4.72;;;;;;;15.28;53.27;100634.84;4971553;28;100515;-94
2022/05/16 00:26:41;;;;;;;15.75;4.95;;;;;;;15.24;53.22;100631.50;4958844;28;97418;-94
2022/05/16 00:29:06;;;;;;;14.38;5.35;;;;;;;15.11;53.56;100643.59;5005682;28;96763;-92
2022/05/16 00:31:32;;;;;;;12.05;5.03;;;;;;;14.95;53.24;100635.50;4995523;28;98359;-94
2022/05/16 00:33:58;;;;;;;13.98;5.97;;;;;;;15.10;53.34;100633.94;4994989;28;98272;-93
2022/05/16 00:36:23;;;;;;;14.60;5.07;;;;;;;15.08;53.37;100636.66;4975436;28;96635;-94
2022/05/16 00:38:50;;;;;;;12.15;4.35;;;;;;;15.09;53.19;100635.72;4971564;28;96863;-93
2022/05/16 00:41:16;;;;;;;15.55;5.20;;;;;;;15.11;52.71;100640.94;4994348;28;97033;-94
2022/05/16 00:43:52;;;;;;;10.98;4.15;;;;;;;15.22;51.85;100635.16;4977945;28;99895;-94
2022/05/16 00:46:19;;;;;;;8.90;3.97;;;;;;;15.33;50.70;100632.81;4983090;28;96840;-94
2022/05/16 00:48:45;;;;;;;9.65;4.97;;;;;;;15.32;49.66;100615.25;4976243;28;97367;-93
2022/05/16 00:51:19;;;;;;;8.05;4.07;;;;;;;15.47;49.63;100640.94;4978109;28;101734;-94
2022/05/16 00:53:44;;;;;;;7.82;3.45;;;;;;;15.39;49.64;100637.81;4977423;28;100993;-94
2022/05/16 00:56:10;;;;;;;7.85;3.60;;;;;;;15.34;50.27;100631.91;4979178;28;96704;-94
2022/05/16 00:58:37;;;;;;;8.93;3.10;;;;;;;15.39;49.02;100629.88;4994648;28;97228;-93
2022/05/16 01:01:03;;;;;;;5.97;3.00;;;;;;;15.35;49.04;100636.25;4974578;28;98506;-94
2022/05/16 01:06:13;;;;;;;7.85;2.92;;;;;;;15.36;48.52;100635.34;4980444;28;96640;-94
2022/05/16 01:08:43;;;;;;;11.85;2.92;;;;;;;15.39;48.04;100632.53;4973840;28;97085;-94
2022/05/16 01:11:10;;;;;;;8.52;3.50;;;;;;;15.31;47.94;100611.75;4982551;28;101415;-93
2022/05/16 01:13:36;;;;;;;7.15;3.00;;;;;;;15.39;48.12;100636.03;4976900;28;98648;-93
2022/05/16 01:16:03;;;;;;;6.90;2.97;;;;;;;15.50;47.66;100646.06;4981681;28;97186;-89
2022/05/16 01:18:28;;;;;;;8.50;3.20;;;;;;;15.18;47.93;100597.38;4983158;28;96896;-94
2022/05/16 01:21:03;;;;;;;5.18;3.00;;;;;;;15.42;47.40;100642.06;4999657;28;98356;-93
2022/05/16 01:23:32;;;;;;;6.20;2.83;;;;;;;15.30;47.55;100640.91;4981849;28;100957;-94
2022/05/16 01:25:58;;;;;;;5.97;3.08;;;;;;;15.12;47.83;100617.06;4978018;28;96771;-93
2022/05/16 01:28:24;;;;;;;7.43;3.10;;;;;;;15.12;47.93;100613.56;4973641;28;96835;-92
2022/05/16 01:30:54;;;;;;;6.25;2.78;;;;;;;15.16;47.34;100612.50;4975593;28;97540;-93
2022/05/16 01:33:23;;;;;;;11.02;3.10;;;;;;;15.33;47.19;100644.28;4977272;28;98465;-95
2022/05/16 01:35:49;;;;;;;7.43;2.95;;;;;;;15.23;47.62;100648.28;4961006;28;96718;-94
2022/05/16 01:38:18;;;;;;;7.55;2.90;;;;;;;15.16;47.31;100618.63;4960796;28;96758;-94
2022/05/16 01:40:53;;;;;;;10.43;2.80;;;;;;;15.15;47.80;100648.66;4978136;28;100966;-94
2022/05/16 01:43:21;;;;;;;6.68;2.85;;;;;;;15.17;47.39;100646.78;4993751;28;98033;-95
2022/05/16 01:45:47;;;;;;;6.97;2.80;;;;;;;15.08;47.90;100647.22;4978078;28;97119;-94
2022/05/16 01:48:14;;;;;;;8.02;2.75;;;;;;;15.11;47.67;100640.94;4956751;28;97247;-94
2022/05/16 01:50:40;;;;;;;10.07;3.10;;;;;;;14.90;48.31;100619.03;4975018;28;97779;-94
2022/05/16 01:53:06;;;;;;;7.10;2.90;;;;;;;15.01;48.04;100619.38;4977038;28;97611;-93
2022/05/16 01:55:32;;;;;;;7.65;3.10;;;;;;;15.08;48.04;100641.09;4973600;28;97630;-93
2022/05/16 01:57:58;;;;;;;9.07;3.28;;;;;;;14.91;48.00;100629.50;4983996;28;96870;-94
2022/05/16 02:00:24;;;;;;;5.85;2.90;;;;;;;14.91;48.16;100618.94;4977037;28;100522;-93
2022/05/16 02:02:49;;;;;;;8.68;3.17;;;;;;;14.95;48.08;100643.44;4993721;28;97631;-95
2022/05/16 02:05:18;;;;;;;6.78;2.40;;;;;;;14.97;48.27;100651.31;4977434;28;96632;-94
2022/05/16 02:07:44;;;;;;;7.97;3.08;;;;;;;15.00;48.22;100654.66;4992899;28;96861;-94
2022/05/16 02:10:11;;;;;;;6.20;3.08;;;;;;;14.84;48.50;100629.88;4960381;28;99985;-95
2022/05/16 02:12:36;;;;;;;8.45;3.20;;;;;;;14.92;48.51;100652.38;4977169;28;100410;-94
2022/05/16 02:15:05;;;;;;;7.28;3.10;;;;;;;14.74;48.35;100625.94;4978163;28;96644;-94
2022/05/16 02:17:31;;;;;;;8.85;2.65;;;;;;;14.85;48.65;100661.50;4957141;28;97181;-92
2022/05/16 02:19:56;;;;;;;9.85;3.00;;;;;;;14.79;48.79;100647.75;4970769;28;100977;-91
2022/05/16 02:25:06;;;;;;;9.63;3.03;;;;;;;14.62;49.11;100638.78;4967450;28;96737;-93
2022/05/16 02:27:32;;;;;;;9.02;3.70;;;;;;;14.69;48.99;100640.25;4976463;28;97120;-93
2022/05/16 02:29:58;;;;;;;9.13;3.83;;;;;;;14.69;48.88;100653.44;4973664;28;101148;-92
2022/05/16 02:32:23;;;;;;;9.13;3.55;;;;;;;14.68;48.88;100651.72;4957593;28;100438;-90
2022/05/16 02:34:50;;;;;;;5.93;2.83;;;;;;;14.74;48.98;100653.22;4973916;28;96973;-92
2022/05/16 02:37:16;;;;;;;6.97;3.00;;;;;;;14.73;48.95;100651.53;4960132;28;96954;-92
2022/05/16 02:39:44;;;;;;;9.98;3.40;;;;;;;14.66;49.33;100636.84;4973488;28;98506;-94
2022/05/16 02:42:11;;;;;;;10.45;3.50;;;;;;;14.58;48.90;100633.75;4973867;28;96930;-95
2022/05/16 02:44:38;;;;;;;9.10;3.05;;;;;;;14.64;49.17;100652.81;4972874;28;97147;-94
2022/05/16 02:47:05;;;;;;;8.55;3.45;;;;;;;14.58;49.28;100647.78;4972385;28;97724;-89
2022/05/16 02:49:31;;;;;;;8.10;3.35;;;;;;;14.62;49.38;100644.06;4960178;28;100988;-95
2022/05/16 02:51:57;;;;;;;11.27;3.42;;;;;;;14.47;49.72;100634.19;4976423;28;101141;-92
2022/05/16 02:54:22;;;;;;;12.18;3.25;;;;;;;14.47;49.50;100640.31;4968023;28;97253;-92
2022/05/16 02:56:48;;;;;;;8.25;3.05;;;;;;;14.43;49.45;100628.19;4971236;28;96920;-94
2022/05/16 02:59:15;;;;;;;7.60;2.78;;;;;;;14.46;49.53;100633.34;4975746;28;98400;-94
2022/05/16 03:01:40;;;;;;;6.60;3.20;;;;;;;14.44;49.84;100642.25;4974034;28;100242;-95
2022/05/16 03:04:06;;;;;;;9.95;2.97;;;;;;;14.42;50.03;100639.66;4992508;28;96896;-95
2022/05/16 03:06:32;;;;;;;8.02;3.08;;;;;;;14.39;50.10;100636.31;4957838;28;96965;-94
2022/05/16 03:08:57;;;;;;;10.00;3.10;;;;;;;14.39;50.31;100638.94;4978736;28;100906;-93
2022/05/16 03:11:23;;;;;;;5.65;3.30;;;;;;;14.37;50.12;100639.03;4963038;28;100045;-94
2022/05/16 03:13:49;;;;;;;7.45;2.90;;;;;;;14.35;50.01;100635.59;4996493;28;96799;-95
2022/05/16 03:16:15;;;;;;;12.60;3.22;;;;;;;14.11;50.41;100608.50;4979301;28;96744;-91
2022/05/16 03:18:41;;;;;;;8.05;3.10;;;;;;;14.35;50.05;100637.38;4979051;28;98294;-94
2022/05/16 03:21:06;;;;;;;9.32;3.85;;;;;;;14.02;50.24;100607.13;4976286;28;101163;-94
2022/05/16 03:23:32;;;;;;;8.30;3.45;;;;;;;14.32;50.51;100629.59;4996470;28;96965;-95
2022/05/16 03:25:57;;;;;;;7.80;3.38;;;;;;;14.28;50.72;100634.13;4996991;28;96933;-93
2022/05/16 03:28:25;;;;;;;8.25;3.10;;;;;;;14.24;50.59;100630.78;4974874;28;99589;-94
2022/05/16 03:30:53;;;;;;;9.40;3.17;;;;;;;14.20;50.98;100626.56;4973833;28;100980;-93
2022/05/16 03:33:19;;;;;;;7.82;3.40;;;;;;;14.10;51.11;100604.13;4979936;28;96757;-95
2022/05/16 03:35:45;;;;;;;9.38;3.65;;;;;;;14.22;50.87;100627.38;4993970;28;97139;-93
2022/05/16 03:40:41;;;;;;;20.08;4.18;;;;;;;14.39;50.55;100617.81;4976656;28;100642;-94
2022/05/16 03:40:57;;;;;;;11.68;3.72;;;;;;;14.13;51.01;100574.09;4979883;28;100195;-94
2022/05/16 03:43:23;;;;;;;8.57;3.38;;;;;;;14.35;50.42;100605.69;4983860;28;96765;-93
2022/05/16 03:45:49;;;;;;;11.93;3.80;;;;;;;14.49;50.76;100638.47;4993431;28;96741;-90
2022/05/16 03:48:15;;;;;;;9.13;3.42;;;;;;;14.56;50.47;100632.94;4993641;28;100451;-91
2022/05/16 03:50:40;;;;;;;11.18;4.22;;;;;;;14.42;50.67;100601.84;5012880;28;101682;-91
2022/05/16 03:53:06;;;;;;;7.78;3.80;;;;;;;14.55;50.91;100631.25;5017449;28;96723;-86
2022/05/16 03:55:32;;;;;;;12.48;3.53;;;;;;;14.43;50.65;100633.47;4984337;28;96470;-90
2022/05/16 03:57:58;;;;;;;13.10;3.83;;;;;;;14.56;50.96;100643.50;5011829;28;98651;-91
2022/05/16 04:00:24;;;;;;;6.43;3.10;;;;;;;14.55;50.77;100642.66;4964925;28;99983;-92
2022/05/16 04:02:50;;;;;;;10.45;3.30;;;;;;;14.71;50.45;100635.72;4976495;28;97570;-93
2022/05/16 04:05:20;;;;;;;10.27;2.85;;;;;;;14.63;50.01;100632.59;5006788;28;96907;-93
2022/05/16 04:07:47;;;;;;;13.73;3.90;;;;;;;14.67;51.29;100649.16;4953890;28;101725;-93
2022/05/16 04:10:14;;;;;;;8.60;3.35;;;;;;;14.64;50.67;100607.03;4957634;28;100274;-94
2022/05/16 04:12:40;;;;;;;13.30;3.78;;;;;;;14.80;50.14;100631.78;4959206;28;97596;-92
2022/05/16 04:15:06;;;;;;;10.00;3.55;;;;;;;14.90;50.03;100629.59;4975420;28;96803;-93
2022/05/16 04:17:32;;;;;;;8.95;3.67;;;;;;;15.10;49.81;100628.66;4987105;28;101566;-94
2022/05/16 04:19:59;;;;;;;8.68;3.35;;;;;;;15.14;49.42;100632.84;4978086;28;101018;-94
2022/05/16 04:22:24;;;;;;;7.85;3.42;;;;;;;15.28;48.82;100634.84;4975493;28;96614;-92
2022/05/16 04:24:50;;;;;;;12.43;3.20;;;;;;;15.31;48.59;100616.19;4977921;28;96839;-92
2022/05/16 04:27:15;;;;;;;8.82;3.35;;;;;;;15.57;48.03;100644.00;4978810;28;100462;-93
2022/05/16 04:29:41;;;;;;;9.70;4.13;;;;;;;15.61;47.93;100646.41;4962258;28;101232;-94
2022/05/16 04:32:07;;;;;;;8.13;4.25;;;;;;;15.69;47.66;100647.84;4979321;28;97201;-93
2022/05/16 04:34:32;;;;;;;15.55;3.60;;;;;;;15.92;47.74;100660.78;4978328;28;97555;-94
2022/05/16 04:36:58;;;;;;;7.68;3.42;;;;;;;16.14;47.00;100657.88;4962235;28;101410;-93
2022/05/16 04:39:23;;;;;;;8.23;3.42;;;;;;;16.18;47.14;100658.59;4995145;28;98096;-95
2022/05/16 04:44:36;;;;;;;8.05;2.85;;;;;;;16.46;46.49;100653.56;4982159;28;97051;-95
2022/05/16 04:47:03;;;;;;;10.63;3.53;;;;;;;16.53;45.76;100643.47;4978261;28;100972;-95
2022/05/16 04:49:30;;;;;;;8.68;3.17;;;;;;;16.64;45.72;100624.31;4977801;28;101247;-93
2022/05/16 04:51:56;;;;;;;10.30;2.95;;;;;;;16.70;45.51;100624.03;4978811;28;97312;-94
2022/05/16 04:54:21;;;;;;;7.03;3.28;;;;;;;17.14;44.98;100631.34;4974723;28;96960;-94
2022/05/16 04:56:47;;;;;;;6.47;3.13;;;;;;;17.13;45.19;100637.56;4977981;28;97421;-94
2022/05/16 04:59:13;;;;;;;11.25;2.97;;;;;;;17.37;45.08;100637.97;4994287;28;97811;-93
2022/05/16 05:01:39;;;;;;;10.70;3.45;;;;;;;17.39;44.70;100638.72;4994864;28;96711;-93
2022/05/16 05:04:05;;;;;;;8.65;3.47;;;;;;;17.73;43.93;100650.06;4962517;28;97147;-92
2022/05/16 05:06:31;;;;;;;6.85;3.10;;;;;;;17.63;43.96;100636.47;4960994;28;101374;-94
2022/05/16 05:08:56;;;;;;;10.10;3.00;;;;;;;17.84;43.57;100635.22;4994361;28;97341;-92
2022/05/16 05:16:51;;;;;;;11.15;3.30;;;;;;;18.50;42.53;100635.69;4980548;28;101345;-95
2022/05/16 05:19:17;;;;;;;8.02;3.35;;;;;;;18.76;42.20;100612.81;4958377;28;100438;-95
2022/05/16 05:21:43;;;;;;;7.40;4.00;;;;;;;19.31;41.35;100638.50;4975766;28;96735;-95
2022/05/16 05:24:09;;;;;;;6.63;2.95;;;;;;;19.24;41.06;100650.53;4974733;28;96957;-93
2022/05/16 05:26:35;;;;;;;10.38;3.22;;;;;;;19.62;40.81;100634.69;4995473;28;98447;-95
2022/05/16 05:29:01;;;;;;;12.40;2.90;;;;;;;19.79;40.04;100638.91;4982455;28;100991;-93
2022/05/16 05:31:26;;;;;;;8.95;3.03;;;;;;;20.20;39.90;100643.22;4970433;28;96718;-91
2022/05/16 05:33:55;;;;;;;9.70;3.30;;;;;;;20.83;38.83;100636.16;4987352;28;96560;-94
2022/05/16 05:36:21;;;;;;;9.73;3.20;;;;;;;21.68;37.29;100642.34;4948067;28;100510;-94
2022/05/16 05:38:51;;;;;;;9.02;2.88;;;;;;;22.61;35.82;100636.13;4969439;28;100484;-95
2022/05/16 05:41:19;;;;;;;8.77;3.20;;;;;;;23.69;34.12;100639.75;4963310;28;96955;-94
2022/05/16 05:43:44;;;;;;;6.82;3.38;;;;;;;25.04;31.67;100620.00;4959008;28;96930;-94
2022/05/16 05:46:10;;;;;;;17.10;4.32;;;;;;;25.78;31.13;100626.72;4995934;28;98155;-88
2022/05/16 05:48:35;;;;;;;7.47;3.78;;;;;;;26.80;29.76;100634.13;4994964;28;98262;-94
2022/05/16 05:51:01;;;;;;;10.82;4.30;;;;;;;27.02;28.97;100609.50;4978833;28;96726;-95
2022/05/16 05:53:27;;;;;;;10.15;3.58;;;;;;;27.72;28.68;100627.66;4975808;28;97087;-90
2022/05/16 05:55:53;;;;;;;8.90;3.85;;;;;;;28.53;27.10;100624.72;4978742;28;100920;-95
2022/05/16 05:58:19;;;;;;;11.00;3.45;;;;;;;28.80;27.08;100628.25;4960895;28;100928;-94
2022/05/16 06:00:45;;;;;;;6.30;3.10;;;;;;;28.85;27.11;100628.56;4982258;28;97802;-94
2022/05/16 06:03:10;;;;;;;6.38;2.70;;;;;;;29.80;25.79;100625.59;4978380;28;98322;-94
2022/05/16 06:05:36;;;;;;;8.50;3.10;;;;;;;29.65;25.91;100634.38;4963134;28;101254;-93
2022/05/16 06:08:02;;;;;;;8.40;2.90;;;;;;;30.35;24.98;100633.81;4995768;28;98262;-95
2022/05/16 06:10:29;;;;;;;11.52;4.25;;;;;;;30.23;25.17;100613.53;4996224;28;96666;-94
2022/05/16 06:12:55;;;;;;;6.63;3.10;;;;;;;31.75;23.50;100623.91;4978778;28;97542;-94
2022/05/16 06:15:21;;;;;;;10.05;3.13;;;;;;;31.95;23.94;100624.28;4975731;28;100584;-95
2022/05/16 06:17:48;;;;;;;10.05;3.88;;;;;;;32.69;22.74;100609.88;5005076;28;98574;-95
2022/05/16 06:20:14;;;;;;;8.68;3.47;;;;;;;32.40;23.20;100599.84;4974625;28;96620;-94
2022/05/16 06:22:40;;;;;;;8.48;3.05;;;;;;;33.08;22.39;100620.44;4955519;28;96836;-93
2022/05/16 06:27:56;;;;;;;6.78;2.88;;;;;;;32.35;22.70;100611.28;4961674;28;98479;-93
2022/05/16 06:30:22;;;;;;;4.40;2.50;;;;;;;32.88;21.88;100598.41;4983602;28;97247;-93
2022/05/16 06:32:48;;;;;;;7.18;3.10;;;;;;;33.27;21.98;100618.09;4960378;28;96975;-94
2022/05/16 06:35:14;;;;;;;5.85;3.25;;;;;;;33.28;21.89;100608.91;4991049;28;98596;-93
2022/05/16 06:37:40;;;;;;;6.38;3.15;;;;;;;32.31;22.69;100609.13;4983690;28;97989;-93
2022/05/16 06:40:05;;;;;;;5.47;2.90;;;;;;;33.01;22.35;100613.22;4969624;28;96851;-92
2022/05/16 06:42:31;;;;;;;5.32;2.83;;;;;;;33.31;21.81;100612.09;4973095;28;98076;-93
2022/05/16 06:44:57;;;;;;;6.38;2.70;;;;;;;33.73;21.68;100606.84;4946724;28;100591;-91
2022/05/16 06:47:23;;;;;;;7.05;2.45;;;;;;;34.78;20.94;100605.00;4957347;28;101136;-93
2022/05/16 06:49:49;;;;;;;4.97;2.58;;;;;;;35.08;20.48;100608.28;4955412;28;97019;-94
2022/05/16 06:52:16;;;;;;;7.22;2.85;;;;;;;35.62;19.91;100606.50;4963848;28;97235;-93
2022/05/16 06:54:42;;;;;;;6.70;2.90;;;;;;;35.48;19.95;100600.16;4962514;28;101426;-90
2022/05/16 06:57:08;;;;;;;6.80;2.88;;;;;;;35.83;19.90;100595.34;4956478;28;99743;-87
2022/05/16 06:59:34;;;;;;;5.45;3.03;;;;;;;35.61;20.00;100600.22;4982962;28;96776;-86
2022/05/16 07:02:00;;;;;;;8.80;2.35;;;;;;;36.24;19.07;100594.25;4987242;28;96950;-86
2022/05/16 07:04:25;;;;;;;6.88;3.08;;;;;;;36.61;19.45;100606.38;4986944;28;101125;-83
2022/05/16 07:06:51;;;;;;;5.68;2.47;;;;;;;37.74;18.69;100607.63;4986813;28;97863;-86
2022/05/16 07:09:17;;;;;;;7.00;2.88;;;;;;;38.35;18.34;100598.59;4954466;28;96800;-84
2022/05/16 07:11:43;;;;;;;7.63;2.90;;;;;;;38.04;18.36;100594.91;4977812;28;96892;-84
2022/05/16 07:14:09;;;;;;;6.90;2.33;;;;;;;37.94;18.17;100602.00;4953029;28;101147;-83
2022/05/16 07:16:35;;;;;;;6.13;2.67;;;;;;;37.50;18.26;100607.38;4969079;28;97913;-91
2022/05/16 07:19:01;;;;;;;9.73;2.60;;;;;;;37.60;18.36;100601.41;4956545;28;96878;-88
2022/05/16 07:21:27;;;;;;;8.50;2.47;;;;;;;37.91;18.11;100596.94;4989186;28;97394;-88
2022/05/16 07:23:52;;;;;;;6.13;2.60;;;;;;;38.21;17.43;100603.38;4973607;28;97108;-87
2022/05/16 07:29:03;;;;;;;7.35;2.78;;;;;;;37.79;17.49;100585.88;4965564;28;97209;-88
2022/05/16 07:31:28;;;;;;;4.68;2.20;;;;;;;38.70;17.00;100597.97;4989844;28;97910;-88
2022/05/16 07:33:54;;;;;;;4.15;2.53;;;;;;;38.46;17.50;100589.63;4989239;28;99810;-88
2022/05/16 07:36:20;;;;;;;8.60;2.80;;;;;;;37.95;17.78;100595.44;4971752;28;97856;-88
2022/05/16 07:38:45;;;;;;;9.93;2.90;;;;;;;36.96;17.78;100580.53;4969267;28;96834;-90
2022/05/16 07:41:11;;;;;;;5.95;2.22;;;;;;;36.76;18.11;100602.53;4988579;28;97263;-88
2022/05/16 07:43:37;;;;;;;7.88;2.60;;;;;;;36.78;18.78;100595.78;4968959;28;97947;-87
2022/05/16 07:46:06;;;;;;;5.95;2.30;;;;;;;37.15;18.64;100585.94;4969546;28;101533;-88
2022/05/16 07:48:32;;;;;;;7.38;2.38;;;;;;;36.57;18.67;100591.47;4968454;28;97440;-89
2022/05/16 07:50:57;;;;;;;8.95;2.30;;;;;;;36.98;18.59;100600.31;4950809;28;97647;-86
2022/05/16 07:53:23;;;;;;;6.07;2.35;;;;;;;37.12;18.25;100594.56;4959997;28;98813;-87
2022/05/16 07:55:54;;;;;;;7.40;2.20;;;;;;;37.22;18.61;100590.50;4974260;28;97349;-87
2022/05/16 07:58:21;;;;;;;7.55;2.60;;;;;;;37.93;17.69;100581.09;4972185;28;96883;-86
2022/05/16 08:00:50;;;;;;;7.50;2.20;;;;;;;36.17;19.10;100590.72;4972435;28;97444;-87
2022/05/16 08:03:18;;;;;;;6.32;2.35;;;;;;;37.15;18.94;100590.56;4949421;28;101538;-86
2022/05/16 08:05:44;;;;;;;4.95;2.45;;;;;;;37.45;18.77;100571.59;4958381;28;100311;-86
2022/05/16 08:10:55;;;;;;;5.47;2.90;;;;;;;37.38;18.43;100593.56;4973994;28;96826;-87
2022/05/16 08:13:21;;;;;;;8.73;2.67;;;;;;;37.36;18.27;100586.63;4967875;28;101948;-87
2022/05/16 08:15:46;;;;;;;4.30;2.22;;;;;;;37.33;18.28;100589.81;4951604;28;101140;-87
2022/05/16 08:18:12;;;;;;;6.57;2.40;;;;;;;38.43;17.29;100583.75;4955373;28;96677;-88
2022/05/16 08:20:42;;;;;;;6.35;2.50;;;;;;;38.44;17.36;100579.97;4973451;28;96900;-88
2022/05/16 08:23:09;;;;;;;10.68;2.97;;;;;;;39.05;16.46;100584.44;4991309;28;98048;-82
2022/05/16 08:25:34;;;;;;;3.25;1.90;;;;;;;38.18;17.51;100581.91;4973377;28;97786;-83
2022/05/16 08:28:00;;;;;;;4.00;2.08;;;;;;;39.24;16.73;100595.34;4972404;28;96751;-80
2022/05/16 08:30:26;;;;;;;5.40;2.28;;;;;;;37.89;17.41;100590.84;4992825;28;96917;-83
2022/05/16 08:32:51;;;;;;;5.75;2.30;;;;;;;38.63;17.45;100591.72;4959997;28;101364;-85
2022/05/16 08:35:19;;;;;;;6.13;2.10;;;;;;;37.59;17.43;100594.25;4956283;28;101191;-87
2022/05/16 08:40:42;;;;;;;4.70;2.10;;;;;;;38.35;16.86;100601.31;4986302;28;96885;-86
2022/05/16 08:43:17;;;;;;;4.53;2.03;;;;;;;37.80;16.79;100595.75;4993879;28;97838;-77
2022/05/16 08:46:10;;;;;;;8.52;2.35;;;;;;;37.75;16.64;100587.38;4975328;28;101236;-78
2022/05/16 08:48:37;;;;;;;6.60;2.20;;;;;;;38.45;16.82;100595.34;4968267;28;96968;-77
2022/05/16 08:51:08;;;;;;;5.70;2.15;;;;;;;38.25;17.06;100599.13;4992035;28;97042;-76
2022/05/16 08:53:40;;;;;;;6.85;2.40;;;;;;;38.68;16.66;100591.88;4973047;28;97584;-81
2022/05/16 08:56:08;;;;;;;4.60;1.77;;;;;;;38.13;16.78;100586.41;4991856;28;97992;-81
2022/05/16 08:58:39;;;;;;;5.28;2.03;;;;;;;38.35;16.25;100589.53;4958103;28;96743;-77
2022/05/16 09:01:12;;;;;;;3.15;1.90;;;;;;;38.68;16.86;100586.41;4972140;28;96904;-79
2022/05/16 09:03:50;;;;;;;5.32;2.00;;;;;;;39.09;16.58;100585.63;4958616;28;97691;-77
2022/05/16 09:06:28;;;;;;;3.08;1.90;;;;;;;38.60;16.28;100584.81;4971196;28;97311;-77
2022/05/16 09:09:10;;;;;;;3.08;1.73;;;;;;;38.44;16.96;100577.22;4972562;28;98144;-77
2022/05/16 09:12:07;;;;;;;4.93;1.70;;;;;;;38.94;16.05;100579.75;4974906;28;97272;-77
2022/05/16 09:14:47;;;;;;;2.60;1.50;;;;;;;37.77;16.03;100575.13;4971533;28;101362;-77
2022/05/16 09:17:23;;;;;;;3.10;1.50;;;;;;;36.18;17.12;100570.53;4980305;28;97853;-78
2022/05/16 09:20:10;;;;;;;4.75;1.70;;;;;;;35.48;17.83;100581.06;4971625;28;97311;-77
2022/05/16 09:22:42;;;;;;;3.85;1.58;;;;;;;35.25;18.60;100579.56;4985491;28;97044;-79
2022/05/16 09:25:13;;;;;;;4.70;1.58;;;;;;;35.46;17.90;100572.22;4981413;28;101274;-76
2022/05/16 09:30:26;;;;;;;6.45;1.67;;;;;;;34.95;18.04;100548.25;4974141;28;96732;-77
2022/05/16 09:33:00;;;;;;;8.23;1.52;;;;;;;34.84;18.17;100574.22;4973998;28;96979;-77
2022/05/16 09:35:29;;;;;;;3.75;1.30;;;;;;;34.93;18.29;100567.50;4955126;28;101802;-78
2022/05/16 09:37:58;;;;;;;2.38;1.30;;;;;;;34.02;19.27;100568.53;4990651;28;97424;-79
2022/05/16 09:40:35;;;;;;;3.20;1.52;;;;;;;33.65;20.54;100556.09;4971752;28;96879;-81
2022/05/16 09:43:34;;;;;;;4.53;1.70;;;;;;;33.97;18.96;100551.94;4972280;28;97143;-80
2022/05/16 09:46:26;;;;;;;2.95;1.38;;;;;;;34.27;19.02;100557.19;4935456;28;101042;-81
2022/05/16 09:49:02;;;;;;;4.65;1.63;;;;;;;34.29;18.93;100548.81;4970438;28;101344;-85
2022/05/16 09:51:30;;;;;;;3.58;1.50;;;;;;;33.75;18.91;100562.06;4975159;28;97164;-86
2022/05/16 09:54:10;;;;;;;6.35;1.60;;;;;;;33.47;19.69;100542.13;4993587;28;96793;-86
2022/05/16 09:56:35;;;;;;;6.00;1.70;;;;;;;33.41;19.27;100554.63;4954407;28;101230;-86
2022/05/16 09:59:01;;;;;;;3.45;1.55;;;;;;;32.89;20.16;100562.03;4980582;28;101442;-84
2022/05/16 10:01:38;;;;;;;3.90;1.40;;;;;;;31.58;21.26;100558.09;4966830;28;97174;-85
2022/05/16 10:04:19;;;;;;;3.25;1.50;;;;;;;30.62;21.79;100566.66;4956458;28;96911;-83
2022/05/16 10:07:01;;;;;;;8.13;1.98;;;;;;;30.30;22.26;100560.38;4950701;28;101479;-84
2022/05/16 10:09:30;;;;;;;2.50;1.40;;;;;;;30.16;22.84;100561.91;4959127;28;101994;-83
2022/05/16 10:11:57;;;;;;;5.25;1.55;;;;;;;30.42;23.07;100566.25;4955949;28;96886;-82
2022/05/16 10:14:22;;;;;;;6.85;1.60;;;;;;;30.51;22.23;100558.94;4967196;28;97115;-87
2022/05/16 10:16:49;;;;;;;6.75;2.05;;;;;;;30.62;23.02;100539.59;4971132;28;100942;-82
2022/05/16 10:19:18;;;;;;;6.57;1.88;;;;;;;30.51;23.20;100554.34;4991485;28;101741;-84
2022/05/16 10:21:57;;;;;;;11.07;1.70;;;;;;;30.01;23.23;100558.22;4950265;28;96816;-83
2022/05/16 10:24:28;;;;;;;2.35;1.30;;;;;;;29.99;23.61;100561.13;4986740;28;97221;-87
2022/05/16 10:26:56;;;;;;;8.48;1.83;;;;;;;30.01;23.76;100560.94;4958624;28;100607;-83
2022/05/16 10:29:31;;;;;;;6.05;1.65;;;;;;;29.71;22.89;100554.41;4975173;28;101110;-84
2022/05/16 10:35:14;;;;;;;2.85;1.50;;;;;;;28.79;24.73;100546.34;4960113;28;97358;-77
2022/05/16 10:37:44;;;;;;;3.10;1.40;;;;;;;28.46;25.97;100531.06;4966847;28;101404;-77
2022/05/16 10:40:27;;;;;;;6.80;2.22;;;;;;;28.47;25.98;100546.25;4961839;28;101305;-77
2022/05/16 10:43:22;;;;;;;2.65;1.23;;;;;;;28.46;23.43;100540.00;4994634;28;98263;-77
2022/05/16 10:45:53;;;;;;;4.18;1.63;;;;;;;28.28;24.13;100539.22;4991068;28;96932;-78
2022/05/16 10:48:46;;;;;;;6.28;1.63;;;;;;;28.21;23.49;100545.25;4976390;28;97627;-79
2022/05/16 10:51:17;;;;;;;6.38;1.65;;;;;;;27.91;25.40;100535.81;4980365;28;97282;-83
2022/05/16 10:54:05;;;;;;;4.47;1.50;;;;;;;27.81;23.28;100520.75;4972625;28;96865;-76
2022/05/16 10:56:49;;;;;;;1.98;1.27;;;;;;;27.89;23.48;100531.59;4971792;28;96889;-76
2022/05/16 10:59:53;;;;;;;2.30;1.08;;;;;;;27.87;24.38;100526.38;4990298;28;101736;-82
2022/05/16 11:02:50;;;;;;;3.65;1.27;;;;;;;27.93;25.75;100522.19;4970752;28;99992;-78
2022/05/16 11:05:53;;;;;;;5.65;1.50;;;;;;;27.99;25.59;100519.69;4988733;28;97113;-79
2022/05/16 11:08:29;;;;;;;4.45;1.75;;;;;;;28.10;25.65;100513.19;4973981;28;97004;-79
2022/05/16 11:11:07;;;;;;;4.63;1.40;;;;;;;28.10;24.87;100506.91;4990413;28;97988;-78
2022/05/16 11:14:10;;;;;;;4.82;1.42;;;;;;;27.97;25.35;100502.81;4957107;28;101215;-79
2022/05/16 11:16:40;;;;;;;3.15;1.50;;;;;;;27.93;24.77;100504.16;4991080;28;96697;-79
2022/05/16 11:19:26;;;;;;;3.97;1.50;;;;;;;27.82;24.08;100509.81;4991127;28;97215;-79
2022/05/16 11:22:24;;;;;;;4.28;1.42;;;;;;;27.65;23.93;100498.03;4941842;28;101702;-79
2022/05/16 11:24:52;;;;;;;4.50;1.60;;;;;;;27.22;24.76;100505.13;4990249;28;99210;-78
2022/05/16 11:27:52;;;;;;;3.63;1.20;;;;;;;27.09;25.23;100500.09;4973995;28;96657;-79
2022/05/16 11:30:30;;;;;;;2.92;1.40;;;;;;;27.08;25.07;100511.91;4993370;28;97086;-79
2022/05/16 11:33:23;;;;;;;4.65;1.48;;;;;;;26.96;25.60;100509.56;4977221;28;101233;-79
2022/05/16 11:35:51;;;;;;;4.55;1.20;;;;;;;26.44;25.55;100469.78;4993728;28;98065;-79
2022/05/16 11:38:22;;;;;;;6.85;1.15;;;;;;;26.36;26.15;100497.47;4974363;28;97177;-78
2022/05/16 11:41:10;;;;;;;8.35;2.08;;;;;;;26.58;25.94;100498.91;4990695;28;96898;-79
2022/05/16 11:43:47;;;;;;;8.02;1.55;;;;;;;26.34;25.95;100499.47;4976580;28;101222;-79
2022/05/16 11:46:34;;;;;;;3.40;1.88;;;;;;;26.25;26.63;100478.84;4996984;28;97530;-78
2022/05/16 11:49:16;;;;;;;2.22;1.35;;;;;;;26.42;26.64;100477.19;4974541;28;96640;-78
2022/05/16 11:52:10;;;;;;;3.97;1.60;;;;;;;26.50;26.51;100481.81;4986091;28;97451;-78
2022/05/16 11:54:38;;;;;;;7.65;1.65;;;;;;;26.55;26.65;100480.38;4992893;28;98566;-78
2022/05/16 12:02:49;;;;;;;3.72;1.60;;;;;;;26.63;25.87;100468.88;4970338;28;97184;-80
2022/05/16 12:05:21;;;;;;;4.63;1.00;;;;;;;26.63;25.12;100474.25;4989251;28;98182;-78
2022/05/16 12:08:13;;;;;;;5.32;1.35;;;;;;;26.61;25.77;100468.16;4984136;28;99103;-78
2022/05/16 12:10:57;;;;;;;3.88;1.40;;;;;;;26.32;25.06;100468.31;4989888;28;96810;-79